createdAt,value
2018-04-08T00:00:06.053Z,12.16
2018-04-08T00:02:33.557Z,12.12
2018-04-08T00:05:01.042Z,12.18
2018-04-08T00:07:28.497Z,12.09
2018-04-08T00:09:56.013Z,12.17
2018-04-08T00:12:23.565Z,12.07
2018-04-08T00:14:51.049Z,12.12
2018-04-08T00:17:18.500Z,12.08
2018-04-08T00:19:45.985Z,12.09
2018-04-08T00:22:13.470Z,12.04
2018-04-08T00:24:40.988Z,11.93
2018-04-08T00:27:08.440Z,11.87
2018-04-08T00:29:35.957Z,11.94
2018-04-08T00:32:03.453Z,11.84
2018-04-08T00:34:30.940Z,11.77
2018-04-08T00:36:58.408Z,11.74
2018-04-08T00:39:25.902Z,11.71
2018-04-08T00:41:54.273Z,11.65
2018-04-08T00:44:21.752Z,11.67
2018-04-08T00:46:49.213Z,11.59
2018-04-08T00:49:16.709Z,11.66
2018-04-08T00:51:44.169Z,11.61
2018-04-08T00:54:23.480Z,11.63
2018-04-08T00:56:50.941Z,11.58
2018-04-08T00:59:18.476Z,11.72
2018-04-08T01:01:46.860Z,11.65
2018-04-08T01:04:14.312Z,11.73
2018-04-08T01:06:41.802Z,11.66
2018-04-08T01:09:10.224Z,11.61
2018-04-08T01:11:37.713Z,11.67
2018-04-08T01:14:05.170Z,11.65
2018-04-08T01:16:32.657Z,11.59
2018-04-08T01:19:01.009Z,11.71
2018-04-08T01:21:28.505Z,11.70
2018-04-08T01:23:56.900Z,11.66
2018-04-08T01:26:24.380Z,11.68
2018-04-08T01:28:51.832Z,11.69
2018-04-08T01:31:20.229Z,11.66
2018-04-08T01:33:47.678Z,11.61
2018-04-08T01:36:15.157Z,11.62
2018-04-08T01:38:42.609Z,11.53
2018-04-08T01:41:10.117Z,11.52
2018-04-08T01:43:38.469Z,11.54
2018-04-08T01:46:05.928Z,11.60
2018-04-08T01:48:33.413Z,11.56
2018-04-08T01:51:00.874Z,11.58
2018-04-08T01:53:29.390Z,11.61
2018-04-08T01:55:56.848Z,11.59
2018-04-08T01:58:24.408Z,11.54
2018-04-08T02:00:51.873Z,11.59
2018-04-08T02:03:19.366Z,11.53
2018-04-08T02:05:46.829Z,11.47
2018-04-08T02:08:14.321Z,11.40
2018-04-08T02:10:42.794Z,11.41
2018-04-08T02:13:10.278Z,11.46
2018-04-08T02:15:37.741Z,11.42
2018-04-08T02:18:05.297Z,11.40
2018-04-08T02:20:32.757Z,11.45
2018-04-08T02:23:00.243Z,11.37
2018-04-08T02:25:27.753Z,11.35
2018-04-08T02:27:55.244Z,11.42
2018-04-08T02:30:22.772Z,11.37
2018-04-08T02:32:50.225Z,11.32
2018-04-08T02:35:17.722Z,11.27
2018-04-08T02:37:45.176Z,11.32
2018-04-08T02:40:12.716Z,11.39
2018-04-08T02:42:40.269Z,11.30
2018-04-08T02:45:07.822Z,11.32
2018-04-08T02:47:35.290Z,11.28
2018-04-08T02:50:02.781Z,11.33
2018-04-08T02:52:30.248Z,11.33
2018-04-08T02:54:57.729Z,11.26
2018-04-08T02:57:25.186Z,11.21
2018-04-08T02:59:52.674Z,11.10
2018-04-08T03:02:20.129Z,11.11
2018-04-08T03:04:47.686Z,10.99
2018-04-08T03:07:15.242Z,11.11
2018-04-08T03:09:42.725Z,11.04
2018-04-08T03:12:10.253Z,10.88
2018-04-08T03:14:37.746Z,10.89
2018-04-08T03:17:06.173Z,10.88
2018-04-08T03:19:33.652Z,10.79
2018-04-08T03:22:01.106Z,10.78
2018-04-08T03:24:28.665Z,10.70
2018-04-08T03:26:56.117Z,10.66
2018-04-08T03:29:23.588Z,10.65
2018-04-08T03:31:51.142Z,10.60
2018-04-08T03:34:18.632Z,10.61
2018-04-08T03:36:46.085Z,10.53
2018-04-08T03:39:13.565Z,10.61
2018-04-08T03:41:41.081Z,10.49
2018-04-08T03:44:08.539Z,10.47
2018-04-08T03:46:36.022Z,10.48
2018-04-08T03:49:04.395Z,10.49
2018-04-08T03:51:31.876Z,10.43
2018-04-08T03:53:59.329Z,10.38
2018-04-08T03:56:26.815Z,10.37
2018-04-08T03:58:54.276Z,10.37
2018-04-08T04:01:21.773Z,10.46
2018-04-08T04:03:49.226Z,10.39
2018-04-08T04:06:16.705Z,10.43
2018-04-08T04:08:45.141Z,10.42
2018-04-08T04:11:12.624Z,10.42
2018-04-08T04:13:40.075Z,10.53
2018-04-08T04:16:07.559Z,10.44
2018-04-08T04:18:46.905Z,10.44
2018-04-08T04:21:26.317Z,10.29
2018-04-08T04:24:06.636Z,10.36
2018-04-08T04:26:34.113Z,10.46
2018-04-08T04:29:01.565Z,10.49
2018-04-08T04:31:29.045Z,10.50
2018-04-08T04:33:56.497Z,10.63
2018-04-08T04:36:23.952Z,10.64
2018-04-08T04:38:51.438Z,10.49
2018-04-08T04:41:18.889Z,10.45
2018-04-08T04:43:52.014Z,10.26
2018-04-08T04:46:19.472Z,10.16
2018-04-08T04:48:47.045Z,10.19
2018-04-08T04:51:14.521Z,10.29
2018-04-08T04:53:42.001Z,10.28
2018-04-08T04:56:09.461Z,10.29
2018-04-08T04:58:36.950Z,10.31
2018-04-08T05:01:04.406Z,10.45
2018-04-08T05:03:31.911Z,10.46
2018-04-08T05:05:59.361Z,10.48
2018-04-08T05:08:26.861Z,10.58
2018-04-08T05:10:54.312Z,10.67
2018-04-08T05:13:21.806Z,10.73
2018-04-08T05:15:49.260Z,10.77
2018-04-08T05:18:16.811Z,10.80
2018-04-08T05:20:44.264Z,10.93
2018-04-08T05:23:11.772Z,10.91
2018-04-08T05:25:39.316Z,11.05
2018-04-08T05:28:06.883Z,11.11
2018-04-08T05:30:34.296Z,11.29
2018-04-08T05:33:01.754Z,11.55
2018-04-08T05:35:29.234Z,11.45
2018-04-08T05:37:57.693Z,11.50
2018-04-08T05:40:25.186Z,11.45
2018-04-08T05:42:53.655Z,11.54
2018-04-08T05:45:21.149Z,11.60
2018-04-08T05:47:48.600Z,11.75
2018-04-08T05:50:16.070Z,11.85
2018-04-08T05:52:43.522Z,12.03
2018-04-08T05:55:10.981Z,12.11
2018-04-08T05:57:38.417Z,12.22
2018-04-08T06:00:05.909Z,12.24
2018-04-08T06:02:33.440Z,12.42
2018-04-08T06:05:00.919Z,12.66
2018-04-08T06:07:28.373Z,12.71
2018-04-08T06:09:55.852Z,12.73
2018-04-08T06:12:23.446Z,12.94
2018-04-08T06:14:50.921Z,13.27
2018-04-08T06:17:18.445Z,13.63
2018-04-08T06:19:45.923Z,13.77
2018-04-08T06:22:13.462Z,13.42
2018-04-08T06:24:41.112Z,13.34
2018-04-08T06:27:08.569Z,13.19
2018-04-08T06:29:36.024Z,13.11
2018-04-08T06:32:05.434Z,13.23
2018-04-08T06:34:32.897Z,13.31
2018-04-08T06:37:00.398Z,13.41
2018-04-08T06:39:28.788Z,13.49
2018-04-08T06:41:56.268Z,13.66
2018-04-08T06:44:23.733Z,13.66
2018-04-08T06:46:51.274Z,13.74
2018-04-08T06:49:18.726Z,13.79
2018-04-08T06:51:46.240Z,14.14
2018-04-08T06:54:13.694Z,14.34
2018-04-08T06:56:41.179Z,14.47
2018-04-08T06:59:08.657Z,14.75
2018-04-08T07:01:36.141Z,14.87
2018-04-08T07:04:03.625Z,15.07
2018-04-08T07:06:31.121Z,14.76
2018-04-08T07:08:58.593Z,14.81
2018-04-08T07:11:26.081Z,15.02
2018-04-08T07:13:54.578Z,15.12
2018-04-08T07:16:22.081Z,15.48
2018-04-08T07:18:49.534Z,15.45
2018-04-08T07:21:16.994Z,15.72
2018-04-08T07:23:44.492Z,15.64
2018-04-08T07:26:11.954Z,15.50
2018-04-08T07:28:39.439Z,15.54
2018-04-08T07:31:13.781Z,15.13
2018-04-08T07:33:42.221Z,15.39
2018-04-08T07:36:09.673Z,15.58
2018-04-08T07:38:37.166Z,15.76
2018-04-08T07:41:04.621Z,15.90
2018-04-08T07:43:32.112Z,16.31
2018-04-08T07:45:59.581Z,16.53
2018-04-08T07:48:29.012Z,16.49
2018-04-08T07:50:57.462Z,16.64
2018-04-08T07:53:24.959Z,16.34
2018-04-08T07:55:52.417Z,16.30
2018-04-08T07:58:20.820Z,16.36
2018-04-08T08:00:48.336Z,16.46
2018-04-08T08:03:15.826Z,16.82
2018-04-08T08:05:43.277Z,17.32
2018-04-08T08:08:11.681Z,17.60
2018-04-08T08:10:39.158Z,17.62
2018-04-08T08:13:06.671Z,17.72
2018-04-08T08:15:34.185Z,17.78
2018-04-08T08:18:01.697Z,17.87
2018-04-08T08:20:29.175Z,18.26
2018-04-08T08:22:56.676Z,18.48
2018-04-08T08:25:24.137Z,18.37
2018-04-08T08:27:51.710Z,18.10
2018-04-08T08:30:19.209Z,18.54
2018-04-08T08:32:47.697Z,18.48
2018-04-08T08:35:15.226Z,18.57
2018-04-08T08:37:43.497Z,18.76
2018-04-08T08:40:10.983Z,18.48
2018-04-08T08:42:39.364Z,18.37
2018-04-08T08:45:06.853Z,18.36
2018-04-08T08:47:34.304Z,18.49
2018-04-08T08:50:01.797Z,18.66
2018-04-08T08:52:29.248Z,18.59
2018-04-08T08:54:56.795Z,18.90
2018-04-08T08:57:26.265Z,18.91
2018-04-08T08:59:54.725Z,18.91
2018-04-08T09:02:23.697Z,18.68
2018-04-08T09:04:51.255Z,18.75
2018-04-08T09:07:18.746Z,18.92
2018-04-08T09:09:46.366Z,18.94
2018-04-08T09:12:13.858Z,19.28
2018-04-08T09:14:41.345Z,18.85
2018-04-08T09:17:08.832Z,18.93
2018-04-08T09:19:43.221Z,18.92
2018-04-08T09:22:15.634Z,19.38
2018-04-08T09:24:43.629Z,19.48
2018-04-08T09:27:12.123Z,19.24
2018-04-08T09:29:39.617Z,19.21
2018-04-08T09:32:07.093Z,19.03
2018-04-08T09:34:35.471Z,18.91
2018-04-08T09:37:04.979Z,19.34
2018-04-08T09:39:32.480Z,19.03
2018-04-08T09:41:59.982Z,18.98
2018-04-08T09:44:27.466Z,18.98
2018-04-08T09:46:56.959Z,19.31
2018-04-08T09:49:24.421Z,19.69
2018-04-08T09:51:51.996Z,19.18
2018-04-08T09:54:19.448Z,19.77
2018-04-08T09:56:47.862Z,19.87
2018-04-08T09:59:15.360Z,19.99
2018-04-08T10:01:54.661Z,20.07
2018-04-08T10:04:22.197Z,20.62
2018-04-08T10:06:50.661Z,20.68
2018-04-08T10:09:18.121Z,20.84
2018-04-08T10:11:45.615Z,20.89
2018-04-08T10:14:14.103Z,20.40
2018-04-08T10:16:41.625Z,20.57
2018-04-08T10:19:09.081Z,20.72
2018-04-08T10:21:36.612Z,20.87
2018-04-08T10:24:04.074Z,20.31
2018-04-08T10:26:31.568Z,20.47
2018-04-08T10:28:59.031Z,21.01
2018-04-08T10:31:26.502Z,21.43
2018-04-08T10:33:54.005Z,21.24
2018-04-08T10:36:21.521Z,21.00
2018-04-08T10:38:49.045Z,21.09
2018-04-08T10:41:17.465Z,20.96
2018-04-08T10:43:45.817Z,21.05
2018-04-08T10:46:13.318Z,21.22
2018-04-08T10:48:40.801Z,21.11
2018-04-08T10:51:09.193Z,21.02
2018-04-08T10:53:36.842Z,20.77
2018-04-08T10:56:04.295Z,21.18
2018-04-08T10:58:31.805Z,21.45
2018-04-08T11:00:59.265Z,21.59
2018-04-08T11:03:26.774Z,22.08
2018-04-08T11:05:54.228Z,21.88
2018-04-08T11:08:22.690Z,21.87
2018-04-08T11:10:50.162Z,22.20
2018-04-08T11:13:17.670Z,22.07
2018-04-08T11:15:45.142Z,21.97
2018-04-08T11:18:12.607Z,21.81
2018-04-08T11:20:40.102Z,21.79
2018-04-08T11:23:07.561Z,21.86
2018-04-08T11:25:35.075Z,21.96
2018-04-08T11:28:04.456Z,22.07
2018-04-08T11:30:31.970Z,22.51
2018-04-08T11:32:59.433Z,22.44
2018-04-08T11:35:26.909Z,22.56
2018-04-08T11:37:54.357Z,22.42
2018-04-08T11:40:21.846Z,22.69
2018-04-08T11:42:49.334Z,22.43
2018-04-08T11:45:16.820Z,22.35
2018-04-08T11:47:44.281Z,22.52
2018-04-08T11:50:11.770Z,22.31
2018-04-08T11:52:39.229Z,22.80
2018-04-08T11:55:06.722Z,22.80
2018-04-08T11:57:34.176Z,22.88
2018-04-08T12:00:01.673Z,23.10
2018-04-08T12:02:29.121Z,22.97
2018-04-08T12:04:56.605Z,23.13
2018-04-08T12:07:25.012Z,23.00
2018-04-08T12:09:52.500Z,23.16
2018-04-08T12:12:21.973Z,23.43
2018-04-08T12:14:49.466Z,23.64
2018-04-08T12:17:16.928Z,23.74
2018-04-08T12:19:44.386Z,23.36
2018-04-08T12:22:11.864Z,23.63
2018-04-08T12:24:39.317Z,23.32
2018-04-08T12:27:08.625Z,23.37
2018-04-08T12:29:36.092Z,23.29
2018-04-08T12:34:30.358Z,23.65
2018-04-08T12:36:58.825Z,24.00
2018-04-08T12:39:26.282Z,24.05
2018-04-08T12:41:54.779Z,24.09
2018-04-08T12:44:22.229Z,24.25
2018-04-08T12:46:49.709Z,23.99
2018-04-08T12:49:17.176Z,24.17
2018-04-08T12:51:44.719Z,23.96
2018-04-08T12:54:12.146Z,23.94
2018-04-08T12:56:39.630Z,24.15
2018-04-08T12:59:07.080Z,24.37
2018-04-08T13:01:34.566Z,24.73
2018-04-08T13:04:02.964Z,24.77
2018-04-08T13:06:30.589Z,24.52
2018-04-08T13:08:58.049Z,24.67
2018-04-08T13:11:25.509Z,24.87
2018-04-08T13:13:53.002Z,25.03
2018-04-08T13:16:20.482Z,25.26
2018-04-08T13:18:47.953Z,24.88
2018-04-08T13:21:15.406Z,25.04
2018-04-08T13:23:42.895Z,25.14
2018-04-08T13:26:10.357Z,25.27
2018-04-08T13:28:37.888Z,25.37
2018-04-08T13:31:05.345Z,25.77
2018-04-08T13:33:32.821Z,26.32
2018-04-08T13:36:00.276Z,28.15
2018-04-08T13:38:27.753Z,28.64
2018-04-08T13:40:55.257Z,29.67
2018-04-08T13:43:22.741Z,28.53
2018-04-08T13:45:50.193Z,28.87
2018-04-08T13:48:17.761Z,28.60
2018-04-08T13:50:45.187Z,29.01
2018-04-08T13:53:12.642Z,28.62
2018-04-08T13:55:40.117Z,27.35
2018-04-08T13:58:08.557Z,28.13
2018-04-08T14:00:36.049Z,28.70
2018-04-08T14:03:03.495Z,29.20
2018-04-08T14:05:30.989Z,29.84
2018-04-08T14:07:59.396Z,29.26
2018-04-08T14:10:26.881Z,29.63
2018-04-08T14:12:54.348Z,30.11
2018-04-08T14:15:21.828Z,30.55
2018-04-08T14:17:49.277Z,30.28
2018-04-08T14:20:16.762Z,31.30
2018-04-08T14:22:44.224Z,30.29
2018-04-08T14:25:11.712Z,29.86
2018-04-08T14:27:39.170Z,29.00
2018-04-08T14:30:06.654Z,28.68
2018-04-08T14:32:34.109Z,28.82
2018-04-08T14:35:01.593Z,29.07
2018-04-08T14:37:29.057Z,28.42
2018-04-08T14:39:56.548Z,28.14
2018-04-08T14:42:24.004Z,27.78
2018-04-08T14:44:51.485Z,28.79
2018-04-08T14:47:18.941Z,28.80
2018-04-08T14:49:46.433Z,29.99
2018-04-08T14:52:13.993Z,31.58
2018-04-08T14:54:42.486Z,32.21
2018-04-08T14:57:11.056Z,32.89
2018-04-08T14:59:38.525Z,33.37
2018-04-08T15:02:06.013Z,34.78
2018-04-08T15:04:33.468Z,35.81
2018-04-08T15:07:00.987Z,35.31
2018-04-08T15:09:28.437Z,37.14
2018-04-08T15:11:55.912Z,37.11
2018-04-08T15:14:23.360Z,38.95
2018-04-08T15:16:51.828Z,36.99
2018-04-08T15:19:19.281Z,36.76
2018-04-08T15:21:46.769Z,36.82
2018-04-08T15:24:14.217Z,38.50
2018-04-08T15:26:41.770Z,40.07
2018-04-08T15:29:11.527Z,39.87
2018-04-08T15:31:39.912Z,39.63
2018-04-08T15:34:07.364Z,39.05
2018-04-08T15:36:34.848Z,39.57
2018-04-08T15:39:02.301Z,39.27
2018-04-08T15:41:29.756Z,39.45
2018-04-08T15:43:57.245Z,37.61
2018-04-08T15:46:24.705Z,37.63
2018-04-08T15:48:52.200Z,37.23
2018-04-08T15:51:19.679Z,39.54
2018-04-08T15:53:47.173Z,38.72
2018-04-08T15:56:14.641Z,36.09
2018-04-08T15:58:43.033Z,36.47
2018-04-08T16:01:10.530Z,36.02
2018-04-08T16:03:38.018Z,32.42
2018-04-08T16:06:05.476Z,29.88
2018-04-08T16:08:35.812Z,28.04
2018-04-08T16:11:03.360Z,27.25
2018-04-08T16:13:30.868Z,26.83
2018-04-08T16:15:58.366Z,27.11
2018-04-08T16:18:25.860Z,29.26
2018-04-08T16:20:53.316Z,30.49
2018-04-08T16:23:20.803Z,30.56
2018-04-08T16:25:48.363Z,32.61
2018-04-08T16:28:16.206Z,33.14
2018-04-08T16:30:44.479Z,31.91
2018-04-08T16:33:13.245Z,32.48
2018-04-08T16:35:40.751Z,33.87
2018-04-08T16:38:08.257Z,32.14
2018-04-08T16:40:35.802Z,30.90
2018-04-08T16:43:03.314Z,32.16
2018-04-08T16:45:31.001Z,31.23
2018-04-08T16:47:58.757Z,29.17
2018-04-08T16:50:26.240Z,26.60
2018-04-08T16:52:53.693Z,25.79
2018-04-08T16:55:21.188Z,25.33
2018-04-08T16:57:48.637Z,24.90
2018-04-08T17:00:16.125Z,24.94
2018-04-08T17:02:45.209Z,24.30
2018-04-08T17:05:12.857Z,24.29
2018-04-08T17:07:40.346Z,23.86
2018-04-08T17:10:07.818Z,23.54
2018-04-08T17:12:36.443Z,23.40
2018-04-08T17:15:04.889Z,23.13
2018-04-08T17:17:32.369Z,23.08
2018-04-08T17:19:59.830Z,22.93
2018-04-08T17:22:27.310Z,22.70
2018-04-08T17:24:54.758Z,22.47
2018-04-08T17:27:22.250Z,22.32
2018-04-08T17:29:49.709Z,22.24
2018-04-08T17:32:17.177Z,22.05
2018-04-08T17:34:44.620Z,21.94
2018-04-08T17:37:12.094Z,21.86
2018-04-08T17:39:39.552Z,21.80
2018-04-08T17:42:07.021Z,21.69
2018-04-08T17:44:34.469Z,21.55
2018-04-08T17:47:01.991Z,21.45
2018-04-08T17:49:29.409Z,21.36
2018-04-08T17:51:56.891Z,21.17
2018-04-08T17:54:24.345Z,21.10
2018-04-08T17:56:52.172Z,21.00
2018-04-08T17:59:19.612Z,20.87
2018-04-08T18:01:47.074Z,20.83
2018-04-08T18:04:15.489Z,20.66
2018-04-08T18:06:42.935Z,20.66
2018-04-08T18:09:10.425Z,20.61
2018-04-08T18:11:38.034Z,20.52
2018-04-08T18:14:05.508Z,20.36
2018-04-08T18:16:34.996Z,20.23
2018-04-08T18:19:02.478Z,20.26
2018-04-08T18:21:29.936Z,20.15
2018-04-08T18:23:57.425Z,20.03
2018-04-08T18:26:24.881Z,20.00
2018-04-08T18:28:52.385Z,20.02
2018-04-08T18:31:19.840Z,19.86
2018-04-08T18:33:47.316Z,19.80
2018-04-08T18:36:14.776Z,19.62
2018-04-08T18:38:42.252Z,19.70
2018-04-08T18:41:09.709Z,19.49
2018-04-08T18:43:37.425Z,19.50
2018-04-08T18:46:04.881Z,19.41
2018-04-08T18:48:32.377Z,19.41
2018-04-08T18:50:59.829Z,19.31
2018-04-08T18:53:27.309Z,19.26
2018-04-08T18:55:54.771Z,19.26
2018-04-08T18:58:22.276Z,19.29
2018-04-08T19:00:49.853Z,19.22
2018-04-08T19:03:17.306Z,19.14
2018-04-08T19:05:44.811Z,19.12
2018-04-08T19:08:12.295Z,19.17
2018-04-08T19:10:39.788Z,19.17
2018-04-08T19:13:07.252Z,19.09
2018-04-08T19:15:35.701Z,19.02
2018-04-08T19:18:03.160Z,18.98
2018-04-08T19:20:30.660Z,19.00
2018-04-08T19:22:58.109Z,18.83
2018-04-08T19:25:25.597Z,18.82
2018-04-08T19:27:53.056Z,18.69
2018-04-08T19:30:21.461Z,18.64
2018-04-08T19:32:48.917Z,18.62
2018-04-08T19:35:16.406Z,18.57
2018-04-08T19:37:43.930Z,18.57
2018-04-08T19:40:11.425Z,18.63
2018-04-08T19:42:38.881Z,18.59
2018-04-08T19:45:07.304Z,18.50
2018-04-08T19:47:34.786Z,18.45
2018-04-08T19:50:02.249Z,18.51
2018-04-08T19:52:29.733Z,18.53
2018-04-08T19:54:57.196Z,18.57
2018-04-08T19:57:24.694Z,18.58
2018-04-08T19:59:52.282Z,18.47
2018-04-08T20:02:19.766Z,18.50
2018-04-08T20:04:47.231Z,18.52
2018-04-08T20:07:14.724Z,18.32
2018-04-08T20:09:42.192Z,18.27
2018-04-08T20:12:09.688Z,18.31
2018-04-08T20:14:37.217Z,18.33
2018-04-08T20:17:05.698Z,18.18
2018-04-08T20:19:33.154Z,18.20
2018-04-08T20:22:00.641Z,18.13
2018-04-08T20:24:28.094Z,18.13
2018-04-08T20:26:55.604Z,18.10
2018-04-08T20:29:23.057Z,18.21
2018-04-08T20:31:50.525Z,18.11
2018-04-08T20:34:18.284Z,18.01
2018-04-08T20:36:45.758Z,17.97
2018-04-08T20:39:13.248Z,17.95
2018-04-08T20:41:40.718Z,17.88
2018-04-08T20:44:08.338Z,17.85
2018-04-08T20:46:35.794Z,17.81
2018-04-08T20:49:03.297Z,17.77
2018-04-08T20:51:30.763Z,17.66
2018-04-08T20:53:58.254Z,17.65
2018-04-08T20:56:25.714Z,17.74
2018-04-08T20:58:55.129Z,17.71
2018-04-08T21:01:22.584Z,17.68
2018-04-08T21:03:50.073Z,17.71
2018-04-08T21:06:17.525Z,17.83
2018-04-08T21:08:45.005Z,17.92
2018-04-08T21:11:12.458Z,18.04
2018-04-08T21:13:39.932Z,17.98
2018-04-08T21:16:07.422Z,17.94
2018-04-08T21:18:34.914Z,17.76
2018-04-08T21:21:02.373Z,17.77
2018-04-08T21:23:29.896Z,17.89
2018-04-08T21:25:57.361Z,17.82
2018-04-08T21:28:24.817Z,17.92
2018-04-08T21:30:52.305Z,17.82
2018-04-08T21:33:19.753Z,17.76
2018-04-08T21:35:47.284Z,17.69
2018-04-08T21:38:14.822Z,17.57
2018-04-08T21:40:42.313Z,17.55
2018-04-08T21:43:09.944Z,17.59
2018-04-08T21:45:37.434Z,17.61
2018-04-08T21:48:05.858Z,17.67
2018-04-08T21:50:33.342Z,17.57
2018-04-08T21:53:00.807Z,17.47
2018-04-08T21:55:28.310Z,17.47
2018-04-08T21:57:55.764Z,17.39
2018-04-08T22:00:23.265Z,17.43
2018-04-08T22:02:50.717Z,17.36
2018-04-08T22:05:18.193Z,17.30
2018-04-08T22:07:45.666Z,17.21
2018-04-08T22:10:13.148Z,17.22
2018-04-08T22:12:40.597Z,17.15
2018-04-08T22:15:08.080Z,17.14
2018-04-08T22:17:35.649Z,17.14
2018-04-08T22:20:03.177Z,17.15
2018-04-08T22:22:30.681Z,17.12
2018-04-08T22:24:58.141Z,16.96
2018-04-08T22:27:25.629Z,17.04
2018-04-08T22:29:53.155Z,16.99
2018-04-08T22:32:20.721Z,16.92
2018-04-08T22:34:48.186Z,16.79
2018-04-08T22:37:15.726Z,16.83
2018-04-08T22:39:43.418Z,16.92
2018-04-08T22:42:10.961Z,16.83
2018-04-08T22:44:38.417Z,16.76
2018-04-08T22:47:06.068Z,16.70
2018-04-08T22:49:33.525Z,16.76
2018-04-08T22:52:01.004Z,16.70
2018-04-08T22:54:28.475Z,16.73
2018-04-08T22:56:55.961Z,16.71
2018-04-08T22:59:23.418Z,16.63
2018-04-08T23:01:50.910Z,16.58
2018-04-08T23:04:18.501Z,16.54
2018-04-08T23:06:45.978Z,16.49
2018-04-08T23:09:13.440Z,16.44
2018-04-08T23:11:40.936Z,16.45
2018-04-08T23:14:08.448Z,16.37
2018-04-08T23:16:35.902Z,16.34
2018-04-08T23:19:03.422Z,16.24
2018-04-08T23:21:31.008Z,16.25
2018-04-08T23:23:58.505Z,16.21
2018-04-08T23:26:25.994Z,16.18
2018-04-08T23:28:53.481Z,16.18
2018-04-08T23:31:20.945Z,16.17
2018-04-08T23:33:48.436Z,16.20
2018-04-08T23:36:15.940Z,16.26
2018-04-08T23:38:44.661Z,16.34
2018-04-08T23:41:14.093Z,16.30
2018-04-08T23:43:41.583Z,16.34
2018-04-08T23:46:09.044Z,16.26
2018-04-08T23:48:36.529Z,16.36
2018-04-08T23:51:03.987Z,16.27
2018-04-08T23:53:31.478Z,16.27
2018-04-08T23:55:58.933Z,16.15
2018-04-08T23:58:27.329Z,16.02
